This is the latest recevied weather packets stored in our database for station/object AF9W-5. If no packets are shown the sender has not sent any weather packets the latest 10 day(s).
| Time | Temp. | Humidity | Pressure | Rain* | Wind** | Luminosity | Snow |
|---|---|---|---|---|---|---|---|
| 1777238855 | 23.33° C | 29% | 1010 hPa | 0 mm | - | 765 W/m² | - |
| 1777238552 | 24.44° C | 27% | 1010.4 hPa | 0 mm | - | 757 W/m² | - |
| 1777238248 | 22.78° C | 29% | 1010.4 hPa | 0 mm | - | 763 W/m² | - |
| 1777237946 | 23.89° C | 29% | 1010.3 hPa | 0 mm | - | 782 W/m² | - |
| 1777237641 | 23.33° C | 31% | 1010.4 hPa | 0 mm | - | 839 W/m² | - |
| 1777237339 | 24.44° C | 29% | 1010.7 hPa | 0 mm | - | 818 W/m² | - |
| 1777237036 | 23.89° C | 30% | 1010.6 hPa | 0 mm | - | 823 W/m² | - |
| 1777236734 | 22.78° C | 31% | 1010.8 hPa | 0 mm | - | 222 W/m² | - |
| 1777236432 | 23.33° C | 31% | 1010.7 hPa | 0 mm | - | 844 W/m² | - |
| 1777236130 | 22.22° C | 33% | 1010.8 hPa | 0 mm | - | 941 W/m² | - |
| 1777235825 | 22.22° C | 34% | 1011 hPa | 0 mm | - | 969 W/m² | - |
| 1777235523 | 23.89° C | 31% | 1010.7 hPa | 0 mm | - | 908 W/m² | - |
| 1777235219 | 22.78° C | 32% | 1010.7 hPa | 0 mm | - | 847 W/m² | - |
| 1777234915 | 22.78° C | 32% | 1010.8 hPa | 0 mm | - | 873 W/m² | - |
| 1777234611 | 22.78° C | 33% | 1010.6 hPa | 0 mm | - | 853 W/m² | - |
| 1777234310 | 22.78° C | 33% | 1010.8 hPa | 0 mm | - | 756 W/m² | - |
| 1777233094 | 22.78° C | 35% | 1010.9 hPa | 0 mm | - | 215 W/m² | - |
| 1777232790 | 22.78° C | 35% | 1011 hPa | 0 mm | - | 215 W/m² | - |
| 1777232489 | 22.78° C | 36% | 1011.1 hPa | 0 mm | - | 894 W/m² | - |
| 1777232187 | 22.78° C | 34% | 1011.1 hPa | 0 mm | - | 869 W/m² | - |
| 1777231883 | 23.33° C | 34% | 1011.1 hPa | 0 mm | - | 879 W/m² | - |
| 1777230668 | 22.22° C | 38% | 1011 hPa | 0 mm | - | 914 W/m² | - |
| 1777230364 | 22.22° C | 38% | 1011.3 hPa | 0 mm | - | 914 W/m² | - |
| 1777230060 | 21.67° C | 37% | 1011.4 hPa | 0 mm | - | 900 W/m² | - |
| 1777228240 | 21.67° C | 39% | 1011.5 hPa | 0 mm | - | 959 W/m² | - |
* Rain latest hour (hover to see other rain measurements)
** Current wind speed in m/s (hover to see current wind gust speed)